sensor_id;sensor_type;location;lat;lon;timestamp;P1;durP1;ratioP1;P2;durP2;ratioP2
19535;SDS011;9913;51.168;4.124;2023-12-14T00:01:48;59.50;;;27.10;;
19535;SDS011;9913;51.168;4.124;2023-12-14T00:04:16;59.90;;;28.77;;
19535;SDS011;9913;51.168;4.124;2023-12-14T00:06:44;63.67;;;27.10;;
19535;SDS011;9913;51.168;4.124;2023-12-14T00:09:12;69.17;;;28.67;;
19535;SDS011;9913;51.168;4.124;2023-12-14T00:11:40;66.90;;;28.67;;
19535;SDS011;9913;51.168;4.124;2023-12-14T00:14:08;67.87;;;29.93;;
19535;SDS011;9913;51.168;4.124;2023-12-14T00:16:36;63.43;;;29.40;;
19535;SDS011;9913;51.168;4.124;2023-12-14T00:19:05;79.00;;;31.23;;
19535;SDS011;9913;51.168;4.124;2023-12-14T00:21:33;64.73;;;30.00;;
19535;SDS011;9913;51.168;4.124;2023-12-14T00:24:02;68.10;;;29.67;;
19535;SDS011;9913;51.168;4.124;2023-12-14T00:26:30;77.47;;;33.27;;
19535;SDS011;9913;51.168;4.124;2023-12-14T00:28:58;82.37;;;34.70;;
19535;SDS011;9913;51.168;4.124;2023-12-14T00:31:28;86.50;;;34.20;;
19535;SDS011;9913;51.168;4.124;2023-12-14T00:33:56;80.50;;;31.67;;
19535;SDS011;9913;51.168;4.124;2023-12-14T00:36:25;83.07;;;33.57;;
19535;SDS011;9913;51.168;4.124;2023-12-14T00:38:53;68.47;;;32.00;;
19535;SDS011;9913;51.168;4.124;2023-12-14T00:41:22;66.27;;;31.50;;
19535;SDS011;9913;51.168;4.124;2023-12-14T00:43:50;65.80;;;29.87;;
19535;SDS011;9913;51.168;4.124;2023-12-14T00:46:18;69.50;;;29.73;;
19535;SDS011;9913;51.168;4.124;2023-12-14T00:48:46;52.73;;;25.87;;
19535;SDS011;9913;51.168;4.124;2023-12-14T00:51:14;55.23;;;27.97;;
19535;SDS011;9913;51.168;4.124;2023-12-14T00:53:43;57.07;;;27.77;;
19535;SDS011;9913;51.168;4.124;2023-12-14T00:56:11;52.97;;;25.67;;
19535;SDS011;9913;51.168;4.124;2023-12-14T00:58:39;50.37;;;25.30;;
19535;SDS011;9913;51.168;4.124;2023-12-14T01:01:08;56.40;;;25.73;;
19535;SDS011;9913;51.168;4.124;2023-12-14T01:03:36;48.07;;;23.50;;
19535;SDS011;9913;51.168;4.124;2023-12-14T01:06:03;49.83;;;25.30;;
19535;SDS011;9913;51.168;4.124;2023-12-14T01:08:32;53.87;;;27.63;;
19535;SDS011;9913;51.168;4.124;2023-12-14T01:11:01;57.93;;;26.53;;
19535;SDS011;9913;51.168;4.124;2023-12-14T01:13:29;52.70;;;26.37;;
19535;SDS011;9913;51.168;4.124;2023-12-14T01:15:57;56.07;;;25.83;;
19535;SDS011;9913;51.168;4.124;2023-12-14T01:18:25;55.17;;;27.37;;
19535;SDS011;9913;51.168;4.124;2023-12-14T01:20:53;53.40;;;25.63;;
19535;SDS011;9913;51.168;4.124;2023-12-14T01:23:21;52.63;;;26.67;;
19535;SDS011;9913;51.168;4.124;2023-12-14T01:25:49;51.47;;;26.03;;
19535;SDS011;9913;51.168;4.124;2023-12-14T01:28:19;56.97;;;28.07;;
19535;SDS011;9913;51.168;4.124;2023-12-14T01:30:47;48.77;;;25.13;;
19535;SDS011;9913;51.168;4.124;2023-12-14T01:33:15;53.77;;;26.73;;
19535;SDS011;9913;51.168;4.124;2023-12-14T01:35:43;49.87;;;25.30;;
19535;SDS011;9913;51.168;4.124;2023-12-14T01:38:11;57.27;;;27.93;;
19535;SDS011;9913;51.168;4.124;2023-12-14T01:40:39;54.30;;;26.00;;
19535;SDS011;9913;51.168;4.124;2023-12-14T01:43:08;51.63;;;25.60;;
19535;SDS011;9913;51.168;4.124;2023-12-14T01:45:38;51.47;;;26.90;;
19535;SDS011;9913;51.168;4.124;2023-12-14T01:48:06;51.37;;;25.07;;
19535;SDS011;9913;51.168;4.124;2023-12-14T01:50:34;59.93;;;26.47;;
19535;SDS011;9913;51.168;4.124;2023-12-14T01:53:02;58.40;;;26.30;;
19535;SDS011;9913;51.168;4.124;2023-12-14T01:55:30;52.57;;;25.00;;
19535;SDS011;9913;51.168;4.124;2023-12-14T01:57:59;52.23;;;24.37;;
19535;SDS011;9913;51.168;4.124;2023-12-14T02:00:34;52.27;;;25.00;;
19535;SDS011;9913;51.168;4.124;2023-12-14T02:03:05;55.60;;;26.77;;
19535;SDS011;9913;51.168;4.124;2023-12-14T02:05:33;54.47;;;26.40;;
19535;SDS011;9913;51.168;4.124;2023-12-14T02:08:01;49.07;;;23.00;;
19535;SDS011;9913;51.168;4.124;2023-12-14T02:10:29;50.80;;;24.10;;
19535;SDS011;9913;51.168;4.124;2023-12-14T02:12:57;47.57;;;23.27;;
19535;SDS011;9913;51.168;4.124;2023-12-14T02:15:25;51.20;;;23.77;;
19535;SDS011;9913;51.168;4.124;2023-12-14T02:17:53;41.83;;;22.10;;
19535;SDS011;9913;51.168;4.124;2023-12-14T02:20:23;43.77;;;23.30;;
19535;SDS011;9913;51.168;4.124;2023-12-14T02:22:53;43.27;;;22.07;;
19535;SDS011;9913;51.168;4.124;2023-12-14T02:25:21;44.53;;;21.80;;
19535;SDS011;9913;51.168;4.124;2023-12-14T02:27:50;43.00;;;23.03;;
19535;SDS011;9913;51.168;4.124;2023-12-14T02:30:18;40.53;;;21.93;;
19535;SDS011;9913;51.168;4.124;2023-12-14T02:32:46;40.60;;;22.30;;
19535;SDS011;9913;51.168;4.124;2023-12-14T02:35:14;42.77;;;21.50;;
19535;SDS011;9913;51.168;4.124;2023-12-14T02:37:42;45.87;;;21.80;;
19535;SDS011;9913;51.168;4.124;2023-12-14T02:40:11;38.50;;;20.97;;
19535;SDS011;9913;51.168;4.124;2023-12-14T02:42:40;39.80;;;21.27;;
19535;SDS011;9913;51.168;4.124;2023-12-14T02:45:08;34.20;;;19.10;;
19535;SDS011;9913;51.168;4.124;2023-12-14T02:47:36;36.10;;;20.30;;
19535;SDS011;9913;51.168;4.124;2023-12-14T02:50:05;35.30;;;20.83;;
19535;SDS011;9913;51.168;4.124;2023-12-14T02:52:33;37.20;;;20.90;;
19535;SDS011;9913;51.168;4.124;2023-12-14T02:55:01;36.03;;;21.93;;
19535;SDS011;9913;51.168;4.124;2023-12-14T02:57:31;31.37;;;19.20;;
19535;SDS011;9913;51.168;4.124;2023-12-14T02:59:59;36.93;;;20.03;;
19535;SDS011;9913;51.168;4.124;2023-12-14T03:02:26;35.00;;;20.43;;
19535;SDS011;9913;51.168;4.124;2023-12-14T03:04:54;35.27;;;20.63;;
19535;SDS011;9913;51.168;4.124;2023-12-14T03:07:22;35.57;;;20.93;;
19535;SDS011;9913;51.168;4.124;2023-12-14T03:09:50;35.90;;;20.37;;
19535;SDS011;9913;51.168;4.124;2023-12-14T03:12:18;34.83;;;20.33;;
19535;SDS011;9913;51.168;4.124;2023-12-14T03:14:48;34.27;;;20.50;;
19535;SDS011;9913;51.168;4.124;2023-12-14T03:17:16;29.00;;;17.90;;
19535;SDS011;9913;51.168;4.124;2023-12-14T03:19:44;31.83;;;18.80;;
19535;SDS011;9913;51.168;4.124;2023-12-14T03:22:12;35.97;;;20.70;;
19535;SDS011;9913;51.168;4.124;2023-12-14T03:24:40;36.10;;;20.87;;
19535;SDS011;9913;51.168;4.124;2023-12-14T03:27:08;36.97;;;21.70;;
19535;SDS011;9913;51.168;4.124;2023-12-14T03:29:36;34.13;;;21.30;;
19535;SDS011;9913;51.168;4.124;2023-12-14T03:32:05;38.70;;;21.23;;
19535;SDS011;9913;51.168;4.124;2023-12-14T03:34:34;33.53;;;21.53;;
19535;SDS011;9913;51.168;4.124;2023-12-14T03:37:02;36.90;;;21.47;;
19535;SDS011;9913;51.168;4.124;2023-12-14T03:39:30;32.60;;;20.37;;
19535;SDS011;9913;51.168;4.124;2023-12-14T03:41:58;28.37;;;18.27;;
19535;SDS011;9913;51.168;4.124;2023-12-14T03:44:26;34.83;;;20.43;;
19535;SDS011;9913;51.168;4.124;2023-12-14T03:46:54;32.07;;;20.33;;
19535;SDS011;9913;51.168;4.124;2023-12-14T03:49:26;31.23;;;19.27;;
19535;SDS011;9913;51.168;4.124;2023-12-14T03:51:54;30.23;;;19.67;;
19535;SDS011;9913;51.168;4.124;2023-12-14T03:54:22;31.03;;;18.93;;
19535;SDS011;9913;51.168;4.124;2023-12-14T03:56:50;30.60;;;18.97;;
19535;SDS011;9913;51.168;4.124;2023-12-14T03:59:18;28.00;;;18.37;;
19535;SDS011;9913;51.168;4.124;2023-12-14T04:01:46;30.80;;;19.70;;
19535;SDS011;9913;51.168;4.124;2023-12-14T04:04:14;27.47;;;16.37;;
19535;SDS011;9913;51.168;4.124;2023-12-14T04:06:43;25.47;;;15.93;;
19535;SDS011;9913;51.168;4.124;2023-12-14T04:09:11;25.97;;;16.07;;
19535;SDS011;9913;51.168;4.124;2023-12-14T04:11:39;28.63;;;17.33;;
19535;SDS011;9913;51.168;4.124;2023-12-14T04:14:07;26.17;;;16.30;;
19535;SDS011;9913;51.168;4.124;2023-12-14T04:16:36;23.87;;;14.97;;
19535;SDS011;9913;51.168;4.124;2023-12-14T04:19:04;25.00;;;15.13;;
19535;SDS011;9913;51.168;4.124;2023-12-14T04:21:37;28.43;;;15.97;;
19535;SDS011;9913;51.168;4.124;2023-12-14T04:24:06;23.07;;;14.43;;
19535;SDS011;9913;51.168;4.124;2023-12-14T04:26:36;27.33;;;17.20;;
19535;SDS011;9913;51.168;4.124;2023-12-14T04:29:04;23.40;;;15.40;;
19535;SDS011;9913;51.168;4.124;2023-12-14T04:31:33;25.10;;;15.33;;
19535;SDS011;9913;51.168;4.124;2023-12-14T04:34:02;22.13;;;13.67;;
19535;SDS011;9913;51.168;4.124;2023-12-14T04:36:30;22.67;;;14.00;;
19535;SDS011;9913;51.168;4.124;2023-12-14T04:38:58;23.17;;;14.90;;
19535;SDS011;9913;51.168;4.124;2023-12-14T04:41:27;24.63;;;15.37;;
19535;SDS011;9913;51.168;4.124;2023-12-14T04:43:55;21.53;;;14.03;;
19535;SDS011;9913;51.168;4.124;2023-12-14T04:46:23;23.23;;;14.80;;
19535;SDS011;9913;51.168;4.124;2023-12-14T04:48:51;20.13;;;13.67;;
19535;SDS011;9913;51.168;4.124;2023-12-14T04:51:19;21.90;;;14.83;;
19535;SDS011;9913;51.168;4.124;2023-12-14T04:53:47;23.30;;;14.47;;
19535;SDS011;9913;51.168;4.124;2023-12-14T04:56:15;20.53;;;13.30;;
19535;SDS011;9913;51.168;4.124;2023-12-14T04:58:45;23.93;;;15.23;;
19535;SDS011;9913;51.168;4.124;2023-12-14T05:01:13;19.47;;;13.80;;
19535;SDS011;9913;51.168;4.124;2023-12-14T05:03:41;23.37;;;14.17;;
19535;SDS011;9913;51.168;4.124;2023-12-14T05:06:10;23.67;;;14.47;;
19535;SDS011;9913;51.168;4.124;2023-12-14T05:08:38;25.53;;;15.63;;
19535;SDS011;9913;51.168;4.124;2023-12-14T05:11:06;26.50;;;16.40;;
19535;SDS011;9913;51.168;4.124;2023-12-14T05:13:34;23.23;;;14.83;;
19535;SDS011;9913;51.168;4.124;2023-12-14T05:16:04;25.40;;;14.17;;
19535;SDS011;9913;51.168;4.124;2023-12-14T05:18:32;21.77;;;13.13;;
19535;SDS011;9913;51.168;4.124;2023-12-14T05:21:00;26.87;;;15.97;;
19535;SDS011;9913;51.168;4.124;2023-12-14T05:23:28;22.33;;;14.13;;
19535;SDS011;9913;51.168;4.124;2023-12-14T05:25:56;21.43;;;13.30;;
19535;SDS011;9913;51.168;4.124;2023-12-14T05:28:25;21.47;;;13.40;;
19535;SDS011;9913;51.168;4.124;2023-12-14T05:30:53;21.27;;;13.07;;
19535;SDS011;9913;51.168;4.124;2023-12-14T05:33:22;20.33;;;12.77;;
19535;SDS011;9913;51.168;4.124;2023-12-14T05:35:50;18.93;;;13.00;;
19535;SDS011;9913;51.168;4.124;2023-12-14T05:38:18;20.80;;;12.33;;
19535;SDS011;9913;51.168;4.124;2023-12-14T05:40:46;20.10;;;12.70;;
19535;SDS011;9913;51.168;4.124;2023-12-14T05:43:14;21.53;;;13.63;;
19535;SDS011;9913;51.168;4.124;2023-12-14T05:45:42;19.97;;;12.00;;
19535;SDS011;9913;51.168;4.124;2023-12-14T05:48:10;20.43;;;12.63;;
19535;SDS011;9913;51.168;4.124;2023-12-14T05:50:40;20.37;;;12.20;;
19535;SDS011;9913;51.168;4.124;2023-12-14T05:53:07;24.23;;;13.30;;
19535;SDS011;9913;51.168;4.124;2023-12-14T05:55:36;23.77;;;11.63;;
19535;SDS011;9913;51.168;4.124;2023-12-14T05:58:05;20.23;;;11.63;;
19535;SDS011;9913;51.168;4.124;2023-12-14T06:00:33;19.10;;;11.87;;
19535;SDS011;9913;51.168;4.124;2023-12-14T06:03:02;22.60;;;11.43;;
19535;SDS011;9913;51.168;4.124;2023-12-14T06:05:30;18.63;;;12.10;;
19535;SDS011;9913;51.168;4.124;2023-12-14T06:07:59;16.57;;;10.20;;
19535;SDS011;9913;51.168;4.124;2023-12-14T06:10:28;18.17;;;10.63;;
19535;SDS011;9913;51.168;4.124;2023-12-14T06:12:58;17.50;;;9.80;;
19535;SDS011;9913;51.168;4.124;2023-12-14T06:15:26;13.80;;;9.70;;
19535;SDS011;9913;51.168;4.124;2023-12-14T06:17:54;18.53;;;9.73;;
19535;SDS011;9913;51.168;4.124;2023-12-14T06:20:23;16.30;;;9.70;;
19535;SDS011;9913;51.168;4.124;2023-12-14T06:22:51;13.57;;;8.43;;
19535;SDS011;9913;51.168;4.124;2023-12-14T06:25:20;20.73;;;10.37;;
19535;SDS011;9913;51.168;4.124;2023-12-14T06:27:48;17.17;;;10.23;;
19535;SDS011;9913;51.168;4.124;2023-12-14T06:30:16;17.00;;;9.73;;
19535;SDS011;9913;51.168;4.124;2023-12-14T06:32:44;15.30;;;8.53;;
19535;SDS011;9913;51.168;4.124;2023-12-14T06:35:13;15.70;;;9.60;;
19535;SDS011;9913;51.168;4.124;2023-12-14T06:37:41;17.87;;;9.37;;
19535;SDS011;9913;51.168;4.124;2023-12-14T06:40:09;14.50;;;8.93;;
19535;SDS011;9913;51.168;4.124;2023-12-14T06:42:39;18.03;;;9.33;;
19535;SDS011;9913;51.168;4.124;2023-12-14T06:45:09;14.87;;;9.53;;
19535;SDS011;9913;51.168;4.124;2023-12-14T06:47:37;14.17;;;8.73;;
19535;SDS011;9913;51.168;4.124;2023-12-14T06:50:08;14.70;;;9.17;;
19535;SDS011;9913;51.168;4.124;2023-12-14T06:52:37;14.93;;;8.67;;
19535;SDS011;9913;51.168;4.124;2023-12-14T06:55:05;15.70;;;9.03;;
19535;SDS011;9913;51.168;4.124;2023-12-14T06:57:34;14.20;;;9.30;;
19535;SDS011;9913;51.168;4.124;2023-12-14T07:00:03;15.00;;;8.30;;
19535;SDS011;9913;51.168;4.124;2023-12-14T07:02:32;17.63;;;10.37;;
19535;SDS011;9913;51.168;4.124;2023-12-14T07:05:00;19.20;;;11.43;;
19535;SDS011;9913;51.168;4.124;2023-12-14T07:07:28;19.43;;;9.87;;
19535;SDS011;9913;51.168;4.124;2023-12-14T07:09:56;15.67;;;10.00;;
19535;SDS011;9913;51.168;4.124;2023-12-14T07:12:24;17.83;;;9.83;;
19535;SDS011;9913;51.168;4.124;2023-12-14T07:14:52;18.70;;;10.70;;
19535;SDS011;9913;51.168;4.124;2023-12-14T07:17:21;14.07;;;9.47;;
19535;SDS011;9913;51.168;4.124;2023-12-14T07:19:50;14.00;;;8.80;;
19535;SDS011;9913;51.168;4.124;2023-12-14T07:22:18;16.83;;;10.73;;
19535;SDS011;9913;51.168;4.124;2023-12-14T07:24:46;16.87;;;8.33;;
19535;SDS011;9913;51.168;4.124;2023-12-14T07:27:25;13.30;;;8.17;;
19535;SDS011;9913;51.168;4.124;2023-12-14T07:29:53;14.23;;;8.67;;
19535;SDS011;9913;51.168;4.124;2023-12-14T07:32:22;14.53;;;9.23;;
19535;SDS011;9913;51.168;4.124;2023-12-14T07:34:50;15.00;;;8.27;;
19535;SDS011;9913;51.168;4.124;2023-12-14T07:37:18;15.60;;;9.73;;
19535;SDS011;9913;51.168;4.124;2023-12-14T07:39:46;14.47;;;8.87;;
19535;SDS011;9913;51.168;4.124;2023-12-14T07:42:14;11.67;;;8.00;;
19535;SDS011;9913;51.168;4.124;2023-12-14T07:44:46;18.60;;;10.37;;
19535;SDS011;9913;51.168;4.124;2023-12-14T07:47:14;15.03;;;8.30;;
19535;SDS011;9913;51.168;4.124;2023-12-14T07:49:43;14.23;;;8.37;;
19535;SDS011;9913;51.168;4.124;2023-12-14T07:52:12;14.57;;;8.83;;
19535;SDS011;9913;51.168;4.124;2023-12-14T07:54:41;12.93;;;9.00;;
19535;SDS011;9913;51.168;4.124;2023-12-14T07:57:09;14.03;;;8.17;;
19535;SDS011;9913;51.168;4.124;2023-12-14T07:59:37;14.07;;;8.23;;
19535;SDS011;9913;51.168;4.124;2023-12-14T08:02:05;15.53;;;8.30;;
19535;SDS011;9913;51.168;4.124;2023-12-14T08:04:33;12.97;;;9.10;;
19535;SDS011;9913;51.168;4.124;2023-12-14T08:07:03;14.27;;;8.37;;
19535;SDS011;9913;51.168;4.124;2023-12-14T08:09:31;17.70;;;9.93;;
19535;SDS011;9913;51.168;4.124;2023-12-14T08:11:59;14.13;;;8.37;;
19535;SDS011;9913;51.168;4.124;2023-12-14T08:14:27;15.67;;;8.60;;
19535;SDS011;9913;51.168;4.124;2023-12-14T08:16:55;13.67;;;7.80;;
19535;SDS011;9913;51.168;4.124;2023-12-14T08:19:23;15.67;;;10.20;;
19535;SDS011;9913;51.168;4.124;2023-12-14T08:21:51;16.93;;;9.83;;
19535;SDS011;9913;51.168;4.124;2023-12-14T08:24:21;14.67;;;9.50;;
19535;SDS011;9913;51.168;4.124;2023-12-14T08:26:49;15.27;;;10.27;;
19535;SDS011;9913;51.168;4.124;2023-12-14T08:29:17;14.73;;;9.13;;
19535;SDS011;9913;51.168;4.124;2023-12-14T08:31:45;14.97;;;8.43;;
19535;SDS011;9913;51.168;4.124;2023-12-14T08:34:13;10.37;;;7.37;;
19535;SDS011;9913;51.168;4.124;2023-12-14T08:36:41;13.97;;;8.30;;
19535;SDS011;9913;51.168;4.124;2023-12-14T08:39:09;14.57;;;8.33;;
19535;SDS011;9913;51.168;4.124;2023-12-14T08:41:39;13.40;;;7.87;;
19535;SDS011;9913;51.168;4.124;2023-12-14T08:44:07;14.73;;;8.57;;
19535;SDS011;9913;51.168;4.124;2023-12-14T08:46:39;13.47;;;7.90;;
19535;SDS011;9913;51.168;4.124;2023-12-14T08:49:07;11.70;;;8.17;;
19535;SDS011;9913;51.168;4.124;2023-12-14T08:51:35;14.63;;;8.37;;
19535;SDS011;9913;51.168;4.124;2023-12-14T08:54:03;10.30;;;7.40;;
19535;SDS011;9913;51.168;4.124;2023-12-14T08:56:31;12.13;;;7.57;;
19535;SDS011;9913;51.168;4.124;2023-12-14T08:59:00;11.63;;;7.50;;
19535;SDS011;9913;51.168;4.124;2023-12-14T09:01:30;12.20;;;6.60;;
19535;SDS011;9913;51.168;4.124;2023-12-14T09:03:59;10.90;;;6.67;;
19535;SDS011;9913;51.168;4.124;2023-12-14T09:06:27;10.23;;;6.10;;
19535;SDS011;9913;51.168;4.124;2023-12-14T09:08:55;12.13;;;6.87;;
19535;SDS011;9913;51.168;4.124;2023-12-14T09:11:23;13.50;;;6.40;;
19535;SDS011;9913;51.168;4.124;2023-12-14T09:13:51;12.23;;;6.83;;
19535;SDS011;9913;51.168;4.124;2023-12-14T09:16:20;16.40;;;6.83;;
19535;SDS011;9913;51.168;4.124;2023-12-14T09:18:48;12.87;;;6.53;;
19535;SDS011;9913;51.168;4.124;2023-12-14T09:21:16;11.30;;;6.03;;
19535;SDS011;9913;51.168;4.124;2023-12-14T09:23:48;12.27;;;6.33;;
19535;SDS011;9913;51.168;4.124;2023-12-14T09:26:17;9.83;;;5.93;;
19535;SDS011;9913;51.168;4.124;2023-12-14T09:28:45;10.93;;;6.70;;
19535;SDS011;9913;51.168;4.124;2023-12-14T09:31:13;12.50;;;7.03;;
19535;SDS011;9913;51.168;4.124;2023-12-14T09:33:44;10.20;;;5.73;;
19535;SDS011;9913;51.168;4.124;2023-12-14T09:36:12;9.00;;;5.10;;
19535;SDS011;9913;51.168;4.124;2023-12-14T09:38:40;9.97;;;6.07;;
19535;SDS011;9913;51.168;4.124;2023-12-14T09:41:08;9.93;;;5.57;;
19535;SDS011;9913;51.168;4.124;2023-12-14T09:43:36;13.17;;;7.43;;
19535;SDS011;9913;51.168;4.124;2023-12-14T09:46:05;13.40;;;6.40;;
19535;SDS011;9913;51.168;4.124;2023-12-14T09:48:33;9.67;;;5.53;;
19535;SDS011;9913;51.168;4.124;2023-12-14T09:51:03;9.90;;;5.80;;
19535;SDS011;9913;51.168;4.124;2023-12-14T09:53:32;10.13;;;5.53;;
19535;SDS011;9913;51.168;4.124;2023-12-14T09:56:00;9.67;;;5.83;;
19535;SDS011;9913;51.168;4.124;2023-12-14T09:58:31;11.20;;;6.13;;
19535;SDS011;9913;51.168;4.124;2023-12-14T10:00:59;12.60;;;6.60;;
19535;SDS011;9913;51.168;4.124;2023-12-14T10:03:29;11.77;;;6.60;;
19535;SDS011;9913;51.168;4.124;2023-12-14T10:05:59;9.03;;;6.03;;
19535;SDS011;9913;51.168;4.124;2023-12-14T10:08:30;11.17;;;5.67;;
19535;SDS011;9913;51.168;4.124;2023-12-14T10:10:58;10.33;;;5.23;;
19535;SDS011;9913;51.168;4.124;2023-12-14T10:13:37;10.87;;;5.43;;
19535;SDS011;9913;51.168;4.124;2023-12-14T10:16:06;9.10;;;5.40;;
19535;SDS011;9913;51.168;4.124;2023-12-14T10:18:34;16.23;;;6.80;;
19535;SDS011;9913;51.168;4.124;2023-12-14T10:21:04;12.07;;;5.73;;
19535;SDS011;9913;51.168;4.124;2023-12-14T10:23:34;10.77;;;5.73;;
19535;SDS011;9913;51.168;4.124;2023-12-14T10:26:04;13.10;;;5.77;;
19535;SDS011;9913;51.168;4.124;2023-12-14T10:28:32;11.17;;;6.00;;
19535;SDS011;9913;51.168;4.124;2023-12-14T10:31:00;8.17;;;5.57;;
19535;SDS011;9913;51.168;4.124;2023-12-14T10:33:28;11.40;;;5.77;;
19535;SDS011;9913;51.168;4.124;2023-12-14T10:35:56;9.23;;;5.60;;
19535;SDS011;9913;51.168;4.124;2023-12-14T10:38:24;10.37;;;4.93;;
19535;SDS011;9913;51.168;4.124;2023-12-14T10:40:55;10.00;;;5.70;;
19535;SDS011;9913;51.168;4.124;2023-12-14T10:43:23;10.13;;;4.87;;
19535;SDS011;9913;51.168;4.124;2023-12-14T10:46:12;6.07;;;4.40;;
19535;SDS011;9913;51.168;4.124;2023-12-14T10:48:40;10.33;;;4.40;;
19535;SDS011;9913;51.168;4.124;2023-12-14T10:51:10;8.50;;;4.87;;
19535;SDS011;9913;51.168;4.124;2023-12-14T10:53:39;8.10;;;4.93;;
19535;SDS011;9913;51.168;4.124;2023-12-14T10:56:11;11.27;;;4.27;;
19535;SDS011;9913;51.168;4.124;2023-12-14T10:58:45;6.70;;;4.10;;
19535;SDS011;9913;51.168;4.124;2023-12-14T11:01:15;10.03;;;4.97;;
19535;SDS011;9913;51.168;4.124;2023-12-14T11:03:43;8.83;;;5.20;;
19535;SDS011;9913;51.168;4.124;2023-12-14T11:06:20;7.60;;;4.77;;
19535;SDS011;9913;51.168;4.124;2023-12-14T11:08:49;9.37;;;5.70;;
19535;SDS011;9913;51.168;4.124;2023-12-14T11:11:20;11.27;;;5.50;;
19535;SDS011;9913;51.168;4.124;2023-12-14T11:13:48;9.70;;;5.70;;
19535;SDS011;9913;51.168;4.124;2023-12-14T11:16:19;11.67;;;6.77;;
19535;SDS011;9913;51.168;4.124;2023-12-14T11:18:48;11.97;;;6.23;;
19535;SDS011;9913;51.168;4.124;2023-12-14T11:21:17;11.07;;;6.10;;
19535;SDS011;9913;51.168;4.124;2023-12-14T11:23:46;12.00;;;7.07;;
19535;SDS011;9913;51.168;4.124;2023-12-14T11:26:15;12.73;;;7.20;;
19535;SDS011;9913;51.168;4.124;2023-12-14T11:28:49;11.57;;;6.50;;
19535;SDS011;9913;51.168;4.124;2023-12-14T11:31:17;14.10;;;7.23;;
19535;SDS011;9913;51.168;4.124;2023-12-14T11:33:47;10.90;;;6.90;;
19535;SDS011;9913;51.168;4.124;2023-12-14T11:36:16;13.03;;;7.33;;
19535;SDS011;9913;51.168;4.124;2023-12-14T11:38:44;15.87;;;7.30;;
19535;SDS011;9913;51.168;4.124;2023-12-14T11:41:13;9.93;;;6.33;;
19535;SDS011;9913;51.168;4.124;2023-12-14T11:43:42;11.27;;;6.97;;
19535;SDS011;9913;51.168;4.124;2023-12-14T11:46:12;15.20;;;7.17;;
19535;SDS011;9913;51.168;4.124;2023-12-14T11:48:40;13.10;;;7.37;;
19535;SDS011;9913;51.168;4.124;2023-12-14T11:51:09;12.07;;;7.67;;
19535;SDS011;9913;51.168;4.124;2023-12-14T11:53:37;16.33;;;7.90;;
19535;SDS011;9913;51.168;4.124;2023-12-14T11:56:06;13.87;;;7.70;;
19535;SDS011;9913;51.168;4.124;2023-12-14T11:58:35;12.70;;;7.87;;
19535;SDS011;9913;51.168;4.124;2023-12-14T12:01:12;10.03;;;7.03;;
19535;SDS011;9913;51.168;4.124;2023-12-14T12:03:40;15.93;;;8.23;;
19535;SDS011;9913;51.168;4.124;2023-12-14T12:06:08;16.03;;;8.17;;
19535;SDS011;9913;51.168;4.124;2023-12-14T12:08:40;16.40;;;9.13;;
19535;SDS011;9913;51.168;4.124;2023-12-14T12:11:08;14.10;;;8.07;;
19535;SDS011;9913;51.168;4.124;2023-12-14T12:13:36;14.17;;;8.57;;
19535;SDS011;9913;51.168;4.124;2023-12-14T12:16:04;13.00;;;7.43;;
19535;SDS011;9913;51.168;4.124;2023-12-14T12:18:34;13.53;;;8.37;;
19535;SDS011;9913;51.168;4.124;2023-12-14T12:21:06;15.87;;;9.80;;
19535;SDS011;9913;51.168;4.124;2023-12-14T12:23:35;15.90;;;9.20;;
19535;SDS011;9913;51.168;4.124;2023-12-14T12:26:03;11.63;;;8.33;;
19535;SDS011;9913;51.168;4.124;2023-12-14T12:28:31;13.37;;;8.30;;
19535;SDS011;9913;51.168;4.124;2023-12-14T12:30:59;14.27;;;7.57;;
19535;SDS011;9913;51.168;4.124;2023-12-14T12:33:28;15.80;;;9.27;;
19535;SDS011;9913;51.168;4.124;2023-12-14T12:35:58;16.43;;;9.60;;
19535;SDS011;9913;51.168;4.124;2023-12-14T12:38:26;16.03;;;8.50;;
19535;SDS011;9913;51.168;4.124;2023-12-14T12:40:54;16.67;;;9.67;;
19535;SDS011;9913;51.168;4.124;2023-12-14T12:43:22;18.77;;;11.07;;
19535;SDS011;9913;51.168;4.124;2023-12-14T12:45:50;17.53;;;10.27;;
19535;SDS011;9913;51.168;4.124;2023-12-14T12:48:18;16.10;;;9.70;;
19535;SDS011;9913;51.168;4.124;2023-12-14T12:50:50;17.97;;;10.27;;
19535;SDS011;9913;51.168;4.124;2023-12-14T12:53:19;18.17;;;10.40;;
19535;SDS011;9913;51.168;4.124;2023-12-14T12:55:48;18.83;;;10.53;;
19535;SDS011;9913;51.168;4.124;2023-12-14T12:58:16;17.23;;;10.57;;
19535;SDS011;9913;51.168;4.124;2023-12-14T13:00:44;15.67;;;9.97;;
19535;SDS011;9913;51.168;4.124;2023-12-14T13:03:12;13.30;;;8.43;;
19535;SDS011;9913;51.168;4.124;2023-12-14T13:05:40;14.50;;;9.37;;
19535;SDS011;9913;51.168;4.124;2023-12-14T13:08:09;16.83;;;8.93;;
19535;SDS011;9913;51.168;4.124;2023-12-14T13:10:38;15.03;;;9.33;;
19535;SDS011;9913;51.168;4.124;2023-12-14T13:13:06;13.93;;;8.20;;
19535;SDS011;9913;51.168;4.124;2023-12-14T13:15:36;13.80;;;9.40;;
19535;SDS011;9913;51.168;4.124;2023-12-14T13:18:06;14.73;;;9.03;;
19535;SDS011;9913;51.168;4.124;2023-12-14T13:20:34;11.33;;;7.80;;
19535;SDS011;9913;51.168;4.124;2023-12-14T13:23:02;12.30;;;6.97;;
19535;SDS011;9913;51.168;4.124;2023-12-14T13:25:30;11.87;;;8.13;;
19535;SDS011;9913;51.168;4.124;2023-12-14T13:28:00;13.30;;;7.67;;
19535;SDS011;9913;51.168;4.124;2023-12-14T13:30:28;9.17;;;6.50;;
19535;SDS011;9913;51.168;4.124;2023-12-14T13:32:56;9.57;;;5.43;;
19535;SDS011;9913;51.168;4.124;2023-12-14T13:35:24;12.43;;;6.37;;
19535;SDS011;9913;51.168;4.124;2023-12-14T13:37:54;12.10;;;6.37;;
19535;SDS011;9913;51.168;4.124;2023-12-14T13:40:25;10.50;;;6.23;;
19535;SDS011;9913;51.168;4.124;2023-12-14T13:42:53;9.80;;;5.80;;
19535;SDS011;9913;51.168;4.124;2023-12-14T13:45:34;9.67;;;5.90;;
19535;SDS011;9913;51.168;4.124;2023-12-14T13:48:02;8.50;;;4.27;;
19535;SDS011;9913;51.168;4.124;2023-12-14T13:50:30;7.37;;;4.10;;
19535;SDS011;9913;51.168;4.124;2023-12-14T13:52:58;9.27;;;4.20;;
19535;SDS011;9913;51.168;4.124;2023-12-14T13:55:26;9.30;;;4.33;;
19535;SDS011;9913;51.168;4.124;2023-12-14T13:57:54;9.57;;;4.20;;
19535;SDS011;9913;51.168;4.124;2023-12-14T14:00:24;8.03;;;3.63;;
19535;SDS011;9913;51.168;4.124;2023-12-14T14:02:54;9.30;;;3.53;;
19535;SDS011;9913;51.168;4.124;2023-12-14T14:05:22;9.20;;;3.17;;
19535;SDS011;9913;51.168;4.124;2023-12-14T14:07:51;7.03;;;3.10;;
19535;SDS011;9913;51.168;4.124;2023-12-14T14:10:19;5.43;;;2.30;;
19535;SDS011;9913;51.168;4.124;2023-12-14T14:12:47;5.33;;;2.47;;
19535;SDS011;9913;51.168;4.124;2023-12-14T14:15:15;7.27;;;2.83;;
19535;SDS011;9913;51.168;4.124;2023-12-14T14:17:43;5.70;;;2.30;;
19535;SDS011;9913;51.168;4.124;2023-12-14T14:20:12;3.97;;;2.17;;
19535;SDS011;9913;51.168;4.124;2023-12-14T14:22:40;6.97;;;2.47;;
19535;SDS011;9913;51.168;4.124;2023-12-14T14:25:08;7.40;;;3.07;;
19535;SDS011;9913;51.168;4.124;2023-12-14T14:27:36;5.90;;;2.63;;
19535;SDS011;9913;51.168;4.124;2023-12-14T14:30:05;8.53;;;3.37;;
19535;SDS011;9913;51.168;4.124;2023-12-14T14:32:33;5.03;;;2.20;;
19535;SDS011;9913;51.168;4.124;2023-12-14T14:35:03;5.20;;;2.47;;
19535;SDS011;9913;51.168;4.124;2023-12-14T14:37:32;4.83;;;2.43;;
19535;SDS011;9913;51.168;4.124;2023-12-14T14:40:01;6.10;;;1.97;;
19535;SDS011;9913;51.168;4.124;2023-12-14T14:42:30;4.27;;;1.73;;
19535;SDS011;9913;51.168;4.124;2023-12-14T14:44:59;4.03;;;2.33;;
19535;SDS011;9913;51.168;4.124;2023-12-14T14:47:27;4.77;;;1.53;;
19535;SDS011;9913;51.168;4.124;2023-12-14T14:49:55;3.97;;;1.33;;
19535;SDS011;9913;51.168;4.124;2023-12-14T14:52:30;3.93;;;1.30;;